createdAt,value
2023-04-16T00:33:24.594Z,10.70
2023-04-16T00:53:43.093Z,9.98
2023-04-16T01:13:49.897Z,10.85
2023-04-16T01:33:56.030Z,8.90
2023-04-16T01:53:58.367Z,9.70
2023-04-16T02:14:00.380Z,10.40
2023-04-16T02:34:02.864Z,10.57
2023-04-16T02:54:04.923Z,11.32
2023-04-16T03:14:08.013Z,11.13
2023-04-16T03:34:16.231Z,9.90
2023-04-16T03:54:22.875Z,10.32
2023-04-16T04:14:43.002Z,11.27
2023-04-16T04:34:45.320Z,12.65
2023-04-16T04:54:54.926Z,10.70
2023-04-16T05:15:00.723Z,8.23
2023-04-16T05:55:53.407Z,8.85
2023-04-16T06:15:55.525Z,8.60
2023-04-16T06:36:13.678Z,6.97
2023-04-16T07:17:08.685Z,5.28
2023-04-16T07:58:12.800Z,5.30
2023-04-16T08:18:35.440Z,6.68
2023-04-16T08:38:56.169Z,5.63
2023-04-16T08:59:01.462Z,6.03
2023-04-16T09:19:03.385Z,5.72
2023-04-16T09:39:27.516Z,5.47
2023-04-16T09:59:57.356Z,6.68
2023-04-16T10:20:17.985Z,5.78
2023-04-16T11:01:47.291Z,3.95
2023-04-16T11:22:17.897Z,4.05
2023-04-16T11:42:33.721Z,3.70
2023-04-16T12:02:49.151Z,3.58
2023-04-16T12:23:08.609Z,3.78
2023-04-16T13:44:47.335Z,3.33
2023-04-16T14:05:11.739Z,3.13
2023-04-16T14:25:16.932Z,2.72
2023-04-16T14:45:18.769Z,2.80
2023-04-16T15:05:22.129Z,2.20
2023-04-16T15:25:26.781Z,2.90
2023-04-16T15:45:32.252Z,2.75
2023-04-16T16:05:39.772Z,2.92
2023-04-16T16:26:12.398Z,2.88
2023-04-16T16:46:32.693Z,2.78
2023-04-16T17:06:53.200Z,3.75
2023-04-16T17:27:32.874Z,4.25
2023-04-16T17:47:53.666Z,4.07
2023-04-16T18:08:14.164Z,4.60
2023-04-16T18:28:16.390Z,5.50
2023-04-16T18:48:18.110Z,6.15
2023-04-16T19:08:19.949Z,5.45
2023-04-16T19:28:21.918Z,4.65
2023-04-16T19:48:23.856Z,4.70
2023-04-16T22:13:26.398Z,11.55
2023-04-16T22:33:29.408Z,11.55
2023-04-16T22:53:31.150Z,11.98
2023-04-16T23:13:33.005Z,12.80
2023-04-16T23:33:34.855Z,12.35
2023-04-16T23:53:36.689Z,12.60
